Terminal Aerodrome Forecast
Issued by NWS Flagstaff, AZ

Home | Current Version | Previous Version | Text Only | Print | Product List | Glossary On
Versions: 1 2 3 4 5 6 7 8 9 10 11 12 13 14 15 16 17
000
FTUS45 KFGZ 312320
TAFFLG
TAF
KFLG 312320Z 0100/0124 VRB05KT P6SM VCSH SCT070 BKN100
     FM010300 VRB03KT P6SM SCT070
     FM011800 VRB06KT P6SM VCSH BKN070
      TEMPO 0119/0123 4SM TSRA BKN040CB OVC060=

USA.gov is the U.S. government's official web portal to all federal, state and local government web resources and services.